createdAt,value
2023-12-03T00:00:38.628Z,799.3
2023-12-03T00:02:21.727Z,801.4
2023-12-03T00:04:05.430Z,805.8
2023-12-03T00:07:31.845Z,812
2023-12-03T00:09:15.313Z,817
2023-12-03T00:10:58.495Z,818.1
2023-12-03T00:12:41.900Z,816.3
2023-12-03T00:14:25.196Z,812.8
2023-12-03T00:16:08.732Z,812.7
2023-12-03T00:17:52.171Z,814
2023-12-03T00:23:01.456Z,816.1
2023-12-03T00:24:44.844Z,817
2023-12-03T00:26:28.281Z,816.5
2023-12-03T00:28:11.713Z,815.7
2023-12-03T00:29:55.192Z,814.4
2023-12-03T00:31:38.399Z,814.4
2023-12-03T00:33:21.716Z,816.8
2023-12-03T00:36:48.390Z,818.4
2023-12-03T00:38:31.762Z,816.5
2023-12-03T00:40:15.201Z,814.6
2023-12-03T00:41:58.435Z,815
2023-12-03T00:43:41.869Z,814.1
2023-12-03T00:45:25.060Z,811.2
2023-12-03T00:47:08.764Z,812.7
2023-12-03T00:48:52.138Z,814.7
2023-12-03T00:50:35.643Z,814.6
2023-12-03T00:52:19.260Z,815.3
2023-12-03T00:54:02.406Z,813.4
2023-12-03T00:55:46.046Z,813.5
2023-12-03T00:57:29.325Z,814.1
2023-12-03T00:59:12.532Z,815.2
2023-12-03T01:00:56.079Z,813.4
2023-12-03T01:02:39.610Z,811.7
2023-12-03T01:04:23.062Z,812.3
2023-12-03T01:06:06.689Z,810.3
2023-12-03T01:07:49.836Z,807.6
2023-12-03T01:09:33.243Z,807
2023-12-03T01:11:16.886Z,806.7
2023-12-03T01:13:00.326Z,806.6
2023-12-03T01:14:43.740Z,807
2023-12-03T01:16:27.116Z,800.8
2023-12-03T01:18:10.826Z,798.6
2023-12-03T01:19:53.997Z,799.1
2023-12-03T01:21:37.316Z,798.3
2023-12-03T01:23:20.973Z,799.3
2023-12-03T01:25:04.322Z,800
2023-12-03T01:26:47.811Z,798.6
2023-12-03T01:28:31.214Z,800.2
2023-12-03T01:30:14.301Z,797
2023-12-03T01:31:58.292Z,796.3
2023-12-03T01:33:41.572Z,797.4
2023-12-03T01:35:25.057Z,796.6
2023-12-03T01:37:08.201Z,799.4
2023-12-03T01:38:51.693Z,800.8
2023-12-03T01:40:35.228Z,800.5
2023-12-03T01:42:18.530Z,799
2023-12-03T01:44:02.138Z,797.1
2023-12-03T01:47:28.443Z,795
2023-12-03T01:49:11.986Z,796.6
2023-12-03T01:50:55.351Z,795.2
2023-12-03T01:52:38.780Z,793.2
2023-12-03T01:54:22.163Z,792.5
2023-12-03T01:56:05.333Z,792.8
2023-12-03T01:57:49.041Z,792.6
2023-12-03T02:02:58.121Z,789.4
2023-12-03T02:04:41.654Z,787
2023-12-03T02:06:24.895Z,785
2023-12-03T02:08:08.346Z,784.8
2023-12-03T02:09:51.681Z,783.8
2023-12-03T02:11:34.936Z,786.1
2023-12-03T02:13:18.267Z,787.1
2023-12-03T02:15:01.782Z,789.1
2023-12-03T02:18:28.180Z,788.6
2023-12-03T02:20:11.607Z,790.2
2023-12-03T02:21:55.019Z,789.2
2023-12-03T02:23:38.317Z,790.1
2023-12-03T02:27:05.112Z,790.8
2023-12-03T02:28:48.663Z,788.2
2023-12-03T02:30:32.036Z,788.4
2023-12-03T02:32:15.636Z,788
2023-12-03T02:33:59.029Z,790.8
2023-12-03T02:35:42.453Z,791.3
2023-12-03T02:37:25.872Z,794.2
2023-12-03T02:39:09.296Z,795.4
2023-12-03T02:40:52.765Z,796.5
2023-12-03T02:42:36.025Z,795.1
2023-12-03T02:44:19.473Z,794.8
2023-12-03T02:47:46.021Z,794.2
2023-12-03T02:49:29.289Z,791.6
2023-12-03T02:51:12.850Z,791.4
2023-12-03T02:54:39.462Z,791.8
2023-12-03T02:56:22.852Z,790.7
2023-12-03T02:58:06.245Z,791.8
2023-12-03T02:59:49.633Z,789.3
2023-12-03T03:01:33.420Z,788.3
2023-12-03T03:03:16.752Z,789.3
2023-12-03T03:05:00.167Z,789.5
2023-12-03T03:06:43.637Z,790
2023-12-03T03:08:26.933Z,792.1
2023-12-03T03:10:10.356Z,792
2023-12-03T03:11:53.733Z,789.2
2023-12-03T03:13:37.133Z,789.7
2023-12-03T03:17:03.729Z,786.4
2023-12-03T03:18:46.992Z,784.4
2023-12-03T03:20:30.389Z,781.7
2023-12-03T03:22:13.792Z,779.7
2023-12-03T03:23:57.178Z,780.2
2023-12-03T03:25:40.598Z,778.7
2023-12-03T03:27:23.976Z,782
2023-12-03T03:29:07.378Z,781.2
2023-12-03T03:32:33.955Z,781.2
2023-12-03T03:34:17.253Z,781.2
2023-12-03T03:36:00.648Z,779.7
2023-12-03T03:37:44.047Z,776.3
2023-12-03T03:39:27.435Z,774.7
2023-12-03T03:41:10.851Z,772.7
2023-12-03T03:42:54.244Z,772
2023-12-03T03:44:37.662Z,773.4
2023-12-03T03:46:21.441Z,771.4
2023-12-03T03:48:04.741Z,772.6
2023-12-03T03:49:48.133Z,771.3
2023-12-03T03:51:31.548Z,773.1
2023-12-03T03:53:14.934Z,775.2
2023-12-03T03:54:58.329Z,774.1
2023-12-03T03:56:41.721Z,773
2023-12-03T03:58:25.111Z,774.4
2023-12-03T04:01:51.578Z,774.9
2023-12-03T04:03:34.997Z,774.1
2023-12-03T04:05:18.386Z,773.1
2023-12-03T04:07:01.777Z,774.1
2023-12-03T04:08:45.179Z,774.7
2023-12-03T04:10:28.575Z,774.2
2023-12-03T04:12:11.980Z,769.7
2023-12-03T04:17:21.233Z,768.5
2023-12-03T04:19:04.602Z,767.3
2023-12-03T04:20:48.080Z,766.1
2023-12-03T04:22:31.511Z,768.1
2023-12-03T04:25:58.194Z,768.1
2023-12-03T04:27:41.598Z,767.8
2023-12-03T04:32:50.828Z,768.4
2023-12-03T04:34:34.245Z,763.7
2023-12-03T04:36:17.639Z,762
2023-12-03T04:38:01.034Z,763.3
2023-12-03T04:39:44.432Z,765.2
2023-12-03T04:41:27.825Z,767
2023-12-03T04:43:11.233Z,765.5
2023-12-03T04:44:54.619Z,762.6
2023-12-03T04:46:38.353Z,763.8
2023-12-03T04:48:21.724Z,764.2
2023-12-03T04:50:05.109Z,762.5
2023-12-03T04:53:31.911Z,759.8
2023-12-03T04:55:15.302Z,760.3
2023-12-03T04:56:58.706Z,761.1
2023-12-03T04:58:42.124Z,760
2023-12-03T05:02:08.570Z,755.2
2023-12-03T05:03:51.984Z,757.4
2023-12-03T05:05:35.370Z,756.7
2023-12-03T05:07:18.768Z,757.3
2023-12-03T05:09:02.265Z,759.6
2023-12-03T05:10:45.588Z,758.6
2023-12-03T05:12:28.968Z,757.8
2023-12-03T05:14:12.364Z,758.1
2023-12-03T05:15:56.174Z,758.9
2023-12-03T05:17:39.532Z,757.5
2023-12-03T05:19:22.857Z,758.7
2023-12-03T05:21:06.253Z,759.1
2023-12-03T05:22:49.703Z,760.4
2023-12-03T05:24:33.052Z,760.8
2023-12-03T05:26:16.488Z,762
2023-12-03T05:27:59.837Z,763.3
2023-12-03T05:31:26.303Z,764
2023-12-03T05:33:09.723Z,763.6
2023-12-03T05:34:53.110Z,764.2
2023-12-03T05:36:36.497Z,762.6
2023-12-03T05:38:19.915Z,761.5
2023-12-03T05:40:03.296Z,762.4
2023-12-03T05:41:46.698Z,762
2023-12-03T05:46:55.962Z,756.6
2023-12-03T05:48:39.327Z,756
2023-12-03T05:50:22.738Z,755.4
2023-12-03T05:52:06.136Z,754
2023-12-03T05:53:49.527Z,752.5
2023-12-03T05:55:32.918Z,753.7
2023-12-03T05:57:16.326Z,751.1
2023-12-03T06:02:25.566Z,750.3
2023-12-03T06:04:08.955Z,748.2
2023-12-03T06:05:52.358Z,747.7
2023-12-03T06:07:35.741Z,750.4
2023-12-03T06:09:19.157Z,753.4
2023-12-03T06:11:02.553Z,755.8
2023-12-03T06:12:45.949Z,755.1
2023-12-03T06:16:12.412Z,753.9
2023-12-03T06:17:55.818Z,754.7
2023-12-03T06:19:39.232Z,755.8
2023-12-03T06:21:22.601Z,755.6
2023-12-03T06:23:06.189Z,753.6
2023-12-03T06:24:49.392Z,751
2023-12-03T06:26:32.818Z,748.5
2023-12-03T06:28:16.202Z,746.4
2023-12-03T06:31:42.795Z,746.3
2023-12-03T06:33:26.063Z,746.3
2023-12-03T06:35:09.452Z,745.6
2023-12-03T06:36:52.861Z,743.6
2023-12-03T06:38:36.252Z,742.5
2023-12-03T06:40:19.667Z,742.1
2023-12-03T06:42:03.057Z,741.4
2023-12-03T06:43:46.437Z,745.3
2023-12-03T06:47:12.955Z,744.2
2023-12-03T06:48:56.317Z,741.2
2023-12-03T06:50:39.712Z,740.8
2023-12-03T06:52:23.183Z,742.8
2023-12-03T06:54:06.534Z,747.8
2023-12-03T06:55:49.941Z,749.3
2023-12-03T06:57:33.307Z,747.2
2023-12-03T06:59:16.765Z,747.2
2023-12-03T07:01:00.409Z,747.2
2023-12-03T07:02:43.849Z,746
2023-12-03T07:04:27.237Z,745.6
2023-12-03T07:06:10.672Z,746.5
2023-12-03T07:07:54.034Z,746
2023-12-03T07:09:37.469Z,744.2
2023-12-03T07:11:20.838Z,743
2023-12-03T07:13:04.186Z,744.7
2023-12-03T07:16:30.847Z,745.2
2023-12-03T07:18:14.175Z,743.8
2023-12-03T07:19:57.454Z,744
2023-12-03T07:21:40.847Z,742.8
2023-12-03T07:23:24.243Z,742.1
2023-12-03T07:25:07.651Z,741
2023-12-03T07:26:51.042Z,741.8
2023-12-03T07:28:34.448Z,745
2023-12-03T07:32:00.904Z,747.5
2023-12-03T07:33:44.315Z,747.2
2023-12-03T07:35:27.716Z,748.4
2023-12-03T07:37:11.099Z,749.2
2023-12-03T07:38:54.494Z,750.6
2023-12-03T07:40:37.903Z,749.6
2023-12-03T07:42:21.294Z,749.5
2023-12-03T07:44:04.701Z,746.6
2023-12-03T07:45:48.421Z,744.9
2023-12-03T07:47:31.926Z,747.8
2023-12-03T07:49:15.189Z,749
2023-12-03T07:50:58.761Z,750
2023-12-03T07:52:41.994Z,751.1
2023-12-03T07:54:25.446Z,751.3
2023-12-03T07:56:08.788Z,751.2
2023-12-03T07:57:52.172Z,748.1
2023-12-03T08:01:18.631Z,747.2
2023-12-03T08:04:45.504Z,747.7
2023-12-03T08:06:28.829Z,748.7
2023-12-03T08:08:12.251Z,746.2
2023-12-03T08:09:55.634Z,746.2
2023-12-03T08:11:39.032Z,746.3
2023-12-03T08:13:22.414Z,746.8
2023-12-03T08:15:06.133Z,745.4
2023-12-03T08:16:49.536Z,746.3
2023-12-03T08:18:32.985Z,745.1
2023-12-03T08:20:16.335Z,745.8
2023-12-03T08:21:59.721Z,747.2
2023-12-03T08:23:43.111Z,746.2
2023-12-03T08:25:26.512Z,749.5
2023-12-03T08:27:10.181Z,756.4
2023-12-03T08:28:53.670Z,767.6
2023-12-03T08:30:37.044Z,773.1
2023-12-03T08:32:20.513Z,774.6
2023-12-03T08:34:03.820Z,777.1
2023-12-03T08:35:47.199Z,788.4
2023-12-03T08:37:30.611Z,793.4
2023-12-03T08:39:14.172Z,793.8
2023-12-03T08:40:57.382Z,794.7
2023-12-03T08:42:41.114Z,792.6
2023-12-03T08:44:24.572Z,788.7
2023-12-03T08:46:08.039Z,789.6
2023-12-03T08:47:51.303Z,791.1
2023-12-03T08:49:34.669Z,785.3
2023-12-03T08:51:18.089Z,780.1
2023-12-03T08:53:01.520Z,776
2023-12-03T08:54:44.863Z,773.6
2023-12-03T08:56:28.619Z,778.5
2023-12-03T08:58:12.035Z,777.2
2023-12-03T08:59:55.525Z,777.5
2023-12-03T09:01:38.771Z,781.1
2023-12-03T09:03:22.177Z,787.4
2023-12-03T09:05:05.558Z,797.6
2023-12-03T09:06:48.966Z,792.2
2023-12-03T09:08:32.362Z,788.6
2023-12-03T09:10:16.052Z,784.7
2023-12-03T09:11:59.472Z,780.3
2023-12-03T09:13:42.874Z,776.7
2023-12-03T09:15:26.292Z,773.7
2023-12-03T09:17:09.651Z,776
2023-12-03T09:18:53.039Z,778.2
2023-12-03T09:20:36.442Z,783.1
2023-12-03T09:25:45.681Z,781.5
2023-12-03T09:27:29.066Z,781.4
2023-12-03T09:29:12.480Z,783.3
2023-12-03T09:30:55.875Z,779.7
2023-12-03T09:32:39.349Z,777.1
2023-12-03T09:34:22.674Z,774
2023-12-03T09:36:06.063Z,767.2
2023-12-03T09:37:49.496Z,759.4
2023-12-03T09:39:33.160Z,754
2023-12-03T09:41:16.563Z,751.1
2023-12-03T09:42:59.959Z,751.8
2023-12-03T09:44:43.361Z,753
2023-12-03T09:46:26.751Z,755.4
2023-12-03T09:48:10.154Z,754.8
2023-12-03T09:49:53.561Z,754.1
2023-12-03T09:51:36.950Z,757.5
2023-12-03T09:55:03.412Z,766.5
2023-12-03T09:56:46.813Z,773.5
2023-12-03T09:58:30.218Z,782.7
2023-12-03T10:00:13.602Z,793.1
2023-12-03T10:01:57.001Z,797.3
2023-12-03T10:03:40.404Z,805.2
2023-12-03T10:05:23.801Z,811
2023-12-03T10:10:33.030Z,826.7
2023-12-03T10:12:16.575Z,835.8
2023-12-03T10:13:59.848Z,845.8
2023-12-03T10:15:43.240Z,856.1
2023-12-03T10:17:26.633Z,872.8
2023-12-03T10:19:10.022Z,890.3
2023-12-03T10:20:53.429Z,916.6
2023-12-03T10:24:19.894Z,943.7
2023-12-03T10:27:46.692Z,955.3
2023-12-03T10:29:30.084Z,959.1
2023-12-03T10:31:13.482Z,960.4
2023-12-03T10:32:56.880Z,956.8
2023-12-03T10:34:40.269Z,955.5
2023-12-03T10:39:49.513Z,956.5
2023-12-03T10:41:32.924Z,961.1
2023-12-03T10:43:16.318Z,975.4
2023-12-03T10:44:59.711Z,1018.7
2023-12-03T10:46:43.098Z,1039
2023-12-03T10:48:26.840Z,1041.2
2023-12-03T10:50:10.230Z,1040.7
2023-12-03T10:53:36.667Z,1257.7
2023-12-03T10:55:19.995Z,1254.3
2023-12-03T10:57:03.339Z,1241.1
2023-12-03T10:58:46.665Z,1177.3
2023-12-03T11:00:30.157Z,1107.4
2023-12-03T11:02:13.562Z,1091.3
2023-12-03T11:03:56.891Z,1080.4
2023-12-03T11:07:23.501Z,1085.8
2023-12-03T11:09:06.951Z,1094.8
2023-12-03T11:10:50.253Z,1094.1
2023-12-03T11:12:33.600Z,1069
2023-12-03T11:14:17.141Z,1044.3
2023-12-03T11:16:00.320Z,1032.8
2023-12-03T11:17:43.725Z,1020.3
2023-12-03T11:21:10.299Z,1002.1
2023-12-03T11:22:53.483Z,998.3
2023-12-03T11:24:37.144Z,996.2
2023-12-03T11:26:20.301Z,993.3
2023-12-03T11:28:03.948Z,994
2023-12-03T11:29:47.419Z,998.4
2023-12-03T11:31:30.759Z,996.2
2023-12-03T11:34:57.292Z,988
2023-12-03T11:36:40.634Z,986.5
2023-12-03T11:38:24.046Z,987
2023-12-03T11:40:07.132Z,985
2023-12-03T11:41:50.699Z,985.8
2023-12-03T11:43:34.354Z,989.3
2023-12-03T11:45:17.320Z,988.1
2023-12-03T11:48:44.111Z,995.1
2023-12-03T11:50:27.286Z,998.2
2023-12-03T11:52:10.603Z,999.6
2023-12-03T11:53:54.354Z,1004.8
2023-12-03T11:55:37.695Z,1008.4
2023-12-03T11:57:21.111Z,1014.4
2023-12-03T11:59:04.166Z,1020.3
2023-12-03T12:00:47.965Z,1017.1
2023-12-03T12:02:31.687Z,1017.7
2023-12-03T12:04:14.666Z,1014.6
2023-12-03T12:05:58.204Z,1012.6
2023-12-03T12:07:41.656Z,1004.4
2023-12-03T12:09:25.114Z,984.8
2023-12-03T12:11:08.387Z,958.2
2023-12-03T12:16:17.589Z,947.5
2023-12-03T12:18:01.067Z,946
2023-12-03T12:19:44.373Z,945.8
2023-12-03T12:21:27.893Z,943.5
2023-12-03T12:23:11.440Z,939.5
2023-12-03T12:26:38.025Z,924.7
2023-12-03T12:30:04.540Z,917.5
2023-12-03T12:31:47.760Z,912.5
2023-12-03T12:33:31.445Z,909.1
2023-12-03T12:35:14.847Z,906.1
2023-12-03T12:36:58.252Z,901.4
2023-12-03T12:38:41.613Z,895.4
2023-12-03T12:40:24.989Z,889.6
2023-12-03T12:43:51.319Z,880.8
2023-12-03T12:45:34.749Z,877.8
2023-12-03T12:47:18.327Z,873.6
2023-12-03T12:49:01.638Z,871.7
2023-12-03T12:50:45.026Z,870.3
2023-12-03T12:52:28.463Z,864.1
2023-12-03T12:54:11.907Z,856.1
2023-12-03T12:57:38.169Z,843
2023-12-03T12:59:21.671Z,835
2023-12-03T13:01:05.089Z,831.3
2023-12-03T13:02:48.584Z,827.1
2023-12-03T13:04:32.059Z,823.6
2023-12-03T13:06:15.284Z,817.2
2023-12-03T13:07:58.456Z,812.1
2023-12-03T13:09:41.837Z,808.7
2023-12-03T13:11:25.879Z,801.5
2023-12-03T13:13:09.274Z,792.6
2023-12-03T13:14:52.715Z,784.1
2023-12-03T13:16:36.012Z,780.7
2023-12-03T13:18:19.303Z,778
2023-12-03T13:20:02.846Z,778.1
2023-12-03T13:21:45.945Z,779.5
2023-12-03T13:25:12.719Z,768
2023-12-03T13:26:56.016Z,764
2023-12-03T13:28:39.542Z,764
2023-12-03T13:30:22.642Z,765.4
2023-12-03T13:32:05.993Z,767.2
2023-12-03T13:33:49.694Z,765
2023-12-03T13:35:33.125Z,767.2
2023-12-03T13:37:16.461Z,768.7
2023-12-03T13:39:00.352Z,769.3
2023-12-03T13:40:43.644Z,767.2
2023-12-03T13:42:27.002Z,766.3
2023-12-03T13:44:10.081Z,761.5
2023-12-03T13:45:53.713Z,758.3
2023-12-03T13:47:37.198Z,753.1
2023-12-03T13:49:20.266Z,749.4
2023-12-03T13:54:29.803Z,736.3
2023-12-03T13:56:13.055Z,733.6
2023-12-03T13:57:56.615Z,728.7
2023-12-03T13:59:40.084Z,721.7
2023-12-03T14:01:23.477Z,717.4
2023-12-03T14:03:06.840Z,714
2023-12-03T14:04:50.159Z,712.7
2023-12-03T14:08:16.693Z,703.1
2023-12-03T14:09:59.957Z,698.1
2023-12-03T14:11:43.153Z,696.1
2023-12-03T14:13:26.651Z,694.8
2023-12-03T14:15:10.289Z,693.1
2023-12-03T14:16:53.678Z,688.3
2023-12-03T14:18:37.043Z,686
2023-12-03T14:22:03.528Z,677.7
2023-12-03T14:23:46.940Z,675
2023-12-03T14:25:30.040Z,675.4
2023-12-03T14:27:13.714Z,674
2023-12-03T14:28:57.108Z,668.8
2023-12-03T14:30:40.586Z,664.3
2023-12-03T14:32:23.852Z,658
2023-12-03T14:35:50.422Z,654
2023-12-03T14:37:33.509Z,650.5
2023-12-03T14:39:17.086Z,649
2023-12-03T14:41:00.536Z,647
2023-12-03T14:42:43.675Z,645.2
2023-12-03T14:44:27.055Z,643.2
2023-12-03T14:46:10.765Z,642.5
2023-12-03T14:47:54.214Z,640.5
2023-12-03T14:49:37.802Z,637.4
2023-12-03T14:51:20.964Z,635.6
2023-12-03T14:53:04.390Z,632.1
2023-12-03T14:54:47.758Z,629.1
2023-12-03T14:56:31.417Z,621.1
2023-12-03T14:58:14.787Z,618.3
2023-12-03T14:59:58.104Z,618
2023-12-03T15:01:41.538Z,616.8
2023-12-03T15:03:25.429Z,613.7
2023-12-03T15:05:08.734Z,612.2
2023-12-03T15:06:52.085Z,609.1
2023-12-03T15:08:35.234Z,608
2023-12-03T15:10:18.996Z,604.5
2023-12-03T15:12:02.311Z,602.7
2023-12-03T15:13:45.797Z,599
2023-12-03T15:18:54.951Z,589.4
2023-12-03T15:20:38.376Z,585.7
2023-12-03T15:22:21.737Z,583.3
2023-12-03T15:24:05.183Z,583.6
2023-12-03T15:25:48.527Z,586
2023-12-03T15:27:31.945Z,585.6
2023-12-03T15:29:15.284Z,584.3
2023-12-03T15:32:41.958Z,578.7
2023-12-03T15:34:25.231Z,574.2
2023-12-03T15:36:08.621Z,572.1
2023-12-03T15:37:52.032Z,570.5
2023-12-03T15:39:35.412Z,568
2023-12-03T15:41:18.797Z,567.6
2023-12-03T15:43:02.097Z,568
2023-12-03T15:46:28.698Z,564.4
2023-12-03T15:48:11.938Z,559.3
2023-12-03T15:49:55.169Z,557.4
2023-12-03T15:51:38.882Z,556.7
2023-12-03T15:53:22.144Z,556.6
2023-12-03T15:55:05.626Z,553.6
2023-12-03T15:56:48.943Z,548.5
2023-12-03T16:00:15.290Z,540.9
2023-12-03T16:01:58.635Z,538.8
2023-12-03T16:03:42.297Z,536
2023-12-03T16:05:25.794Z,535.1
2023-12-03T16:07:08.934Z,534
2023-12-03T16:08:52.467Z,532
2023-12-03T16:10:35.925Z,529.6
2023-12-03T16:14:02.409Z,524.6
2023-12-03T16:15:45.867Z,523.5
2023-12-03T16:17:28.882Z,525.5
2023-12-03T16:19:12.614Z,525.3
2023-12-03T16:20:55.746Z,525.4
2023-12-03T16:22:39.239Z,524.4
2023-12-03T16:24:22.479Z,524.3
2023-12-03T16:26:05.874Z,524
2023-12-03T16:27:49.904Z,523.3
2023-12-03T16:29:33.345Z,520.8
2023-12-03T16:31:16.670Z,521.5
2023-12-03T16:33:00.077Z,519.2
2023-12-03T16:34:43.487Z,517.4
2023-12-03T16:36:26.544Z,514.7
2023-12-03T16:38:10.276Z,511.5
2023-12-03T16:41:36.755Z,506.5
2023-12-03T16:43:19.837Z,504.5
2023-12-03T16:45:03.224Z,504
2023-12-03T16:46:46.987Z,503.1
2023-12-03T16:48:30.256Z,502.1
2023-12-03T16:50:13.707Z,500.8
2023-12-03T16:51:57.036Z,498.6
2023-12-03T16:57:06.376Z,500.7
2023-12-03T16:58:49.447Z,500.7
2023-12-03T17:00:32.864Z,503.6
2023-12-03T17:02:16.417Z,509.3
2023-12-03T17:03:59.856Z,515.3
2023-12-03T17:05:43.326Z,521.2
2023-12-03T17:07:26.729Z,527.3
2023-12-03T17:10:53.212Z,539.8
2023-12-03T17:12:36.552Z,547.3
2023-12-03T17:14:19.959Z,554.6
2023-12-03T17:16:03.159Z,561.6
2023-12-03T17:17:46.829Z,569.1
2023-12-03T17:19:29.891Z,576.2
2023-12-03T17:21:13.595Z,582
2023-12-03T17:22:56.908Z,589.8
2023-12-03T17:24:40.684Z,608.5
2023-12-03T17:26:24.098Z,637.3
2023-12-03T17:28:07.485Z,646.7
2023-12-03T17:29:50.881Z,656.7
2023-12-03T17:31:34.310Z,686.2
2023-12-03T17:33:17.439Z,705.3
2023-12-03T17:35:01.131Z,720.8
2023-12-03T17:40:10.278Z,724.9
2023-12-03T17:41:53.778Z,727.6
2023-12-03T17:43:37.194Z,730.6
2023-12-03T17:45:20.473Z,733.3
2023-12-03T17:47:03.890Z,736.3
2023-12-03T17:48:47.280Z,735.7
2023-12-03T17:50:30.727Z,737
2023-12-03T17:55:39.787Z,733.2
2023-12-03T17:57:23.080Z,733.1
2023-12-03T17:59:06.555Z,730.8
2023-12-03T18:00:50.175Z,730.1
2023-12-03T18:02:33.516Z,729.4
2023-12-03T18:04:16.637Z,728.5
2023-12-03T18:06:00.309Z,726.5
2023-12-03T18:07:43.831Z,723.8
2023-12-03T18:11:10.177Z,722.4
2023-12-03T18:12:53.283Z,723.2
2023-12-03T18:14:36.941Z,721.1
2023-12-03T18:16:20.097Z,719.3
2023-12-03T18:18:03.587Z,720.1
2023-12-03T18:19:47.284Z,719.8
2023-12-03T18:21:30.608Z,718.5
2023-12-03T18:23:14.004Z,721.2
2023-12-03T18:24:57.683Z,720.9
2023-12-03T18:26:41.087Z,720.7
2023-12-03T18:28:24.172Z,724.7
2023-12-03T18:30:07.577Z,728.5
2023-12-03T18:31:51.219Z,730.7
2023-12-03T18:33:34.673Z,730.1
2023-12-03T18:35:17.965Z,730.2
2023-12-03T18:37:01.436Z,728.7
2023-12-03T18:40:27.622Z,732.5
2023-12-03T18:42:11.283Z,737.5
2023-12-03T18:43:54.525Z,738.4
2023-12-03T18:45:38.066Z,742.3
2023-12-03T18:47:21.224Z,746.7
2023-12-03T18:49:04.886Z,749.4
2023-12-03T18:50:48.375Z,747.7
2023-12-03T18:52:31.731Z,749.4
2023-12-03T18:55:58.260Z,754.6
2023-12-03T18:57:41.284Z,758.2
2023-12-03T18:59:24.687Z,761.7
2023-12-03T19:01:08.419Z,765.2
2023-12-03T19:02:51.847Z,767.8
2023-12-03T19:04:35.216Z,767.6
2023-12-03T19:06:18.563Z,769
2023-12-03T19:08:01.994Z,773.5
2023-12-03T19:11:28.425Z,775
2023-12-03T19:13:11.781Z,777.4
2023-12-03T19:14:55.313Z,777.8
2023-12-03T19:16:38.586Z,778.7
2023-12-03T19:18:22.002Z,781.6
2023-12-03T19:20:05.117Z,779.4
2023-12-03T19:21:48.841Z,779.3
2023-12-03T19:23:31.909Z,776
2023-12-03T19:25:16.005Z,774.3
2023-12-03T19:26:59.361Z,775.6
2023-12-03T19:28:42.690Z,778.2
2023-12-03T19:30:26.107Z,780.1
2023-12-03T19:32:09.459Z,780.7
2023-12-03T19:33:52.936Z,779.5
2023-12-03T19:35:36.411Z,781.1
2023-12-03T19:37:19.722Z,781.6
2023-12-03T19:40:46.186Z,780.7
2023-12-03T19:42:29.290Z,782.4
2023-12-03T19:44:12.906Z,784.7
2023-12-03T19:45:56.403Z,785.5
2023-12-03T19:47:39.674Z,785.7
2023-12-03T19:49:23.217Z,787.5
2023-12-03T19:51:06.492Z,787.7
2023-12-03T19:52:49.898Z,790.3
2023-12-03T19:56:16.484Z,792.5
2023-12-03T19:57:59.561Z,793.6
2023-12-03T19:59:42.901Z,794.6
2023-12-03T20:01:26.553Z,798.5
2023-12-03T20:03:10.017Z,799
2023-12-03T20:04:53.482Z,801.1
2023-12-03T20:06:36.874Z,807.1
2023-12-03T20:10:03.363Z,804.8
2023-12-03T20:11:46.703Z,801.5
2023-12-03T20:13:30.154Z,800.6
2023-12-03T20:15:13.455Z,801.7
2023-12-03T20:16:56.925Z,804.1
2023-12-03T20:18:40.291Z,806.2
2023-12-03T20:20:23.640Z,808
2023-12-03T20:22:07.061Z,808.5
2023-12-03T20:25:33.522Z,805.7
2023-12-03T20:27:16.972Z,803.8
2023-12-03T20:29:00.170Z,803.1
2023-12-03T20:30:43.429Z,802.2
2023-12-03T20:32:26.822Z,804.2
2023-12-03T20:34:10.206Z,803.3
2023-12-03T20:35:53.868Z,804.7
2023-12-03T20:41:03.322Z,812.1
2023-12-03T20:42:46.618Z,815.1
2023-12-03T20:44:30.023Z,812.7
2023-12-03T20:46:13.326Z,812.5
2023-12-03T20:47:56.774Z,810.8
2023-12-03T20:49:40.134Z,811.7
2023-12-03T20:51:23.573Z,812
2023-12-03T20:53:06.956Z,816.3
2023-12-03T20:56:33.510Z,818.9
2023-12-03T20:58:16.808Z,818.4
2023-12-03T21:00:00.183Z,815.1
2023-12-03T21:01:43.630Z,812.3
2023-12-03T21:03:26.701Z,810
2023-12-03T21:05:10.081Z,809.8
2023-12-03T21:06:53.806Z,804.8
2023-12-03T21:08:37.068Z,804.1
2023-12-03T21:12:03.667Z,805.5
2023-12-03T21:13:46.881Z,802.7
2023-12-03T21:15:30.444Z,802
2023-12-03T21:17:13.700Z,800
2023-12-03T21:18:57.279Z,798.8
2023-12-03T21:20:40.621Z,800.5
2023-12-03T21:22:24.107Z,799
2023-12-03T21:24:07.474Z,794.2
2023-12-03T21:27:33.928Z,787.7
2023-12-03T21:29:17.256Z,788.8
2023-12-03T21:31:00.695Z,788.3
2023-12-03T21:32:43.949Z,787.1
2023-12-03T21:34:27.211Z,785.3
2023-12-03T21:36:10.916Z,780.3
2023-12-03T21:37:54.313Z,778
2023-12-03T21:39:37.755Z,777
2023-12-03T21:41:21.466Z,779.5
2023-12-03T21:43:04.799Z,781.7
2023-12-03T21:44:48.231Z,778.3
2023-12-03T21:46:31.566Z,777.4
2023-12-03T21:48:14.957Z,775.3
2023-12-03T21:49:58.384Z,772.7
2023-12-03T21:51:41.814Z,773
2023-12-03T21:53:25.252Z,772.2
2023-12-03T21:56:51.676Z,769.9
2023-12-03T21:58:34.755Z,769.1
2023-12-03T22:00:18.256Z,767.4
2023-12-03T22:02:01.830Z,767
2023-12-03T22:03:45.159Z,766.8
2023-12-03T22:05:28.623Z,765.8
2023-12-03T22:07:11.943Z,765.5
2023-12-03T22:12:21.265Z,772.1
2023-12-03T22:14:04.739Z,774.5
2023-12-03T22:15:48.044Z,780
2023-12-03T22:17:31.462Z,780.1
2023-12-03T22:19:14.550Z,778.6
2023-12-03T22:20:57.940Z,777.7
2023-12-03T22:22:41.351Z,778.6
2023-12-03T22:24:25.083Z,779.8
2023-12-03T22:26:08.763Z,780.9
2023-12-03T22:27:52.258Z,780
2023-12-03T22:29:35.565Z,781.2
2023-12-03T22:31:18.993Z,779.3
2023-12-03T22:33:02.325Z,777.4
2023-12-03T22:34:45.748Z,776.4
2023-12-03T22:36:28.804Z,777.1
2023-12-03T22:38:12.541Z,775.1
2023-12-03T22:39:56.289Z,773.5
2023-12-03T22:41:39.623Z,774.3
2023-12-03T22:43:22.892Z,777.3
2023-12-03T22:46:49.840Z,774.5
2023-12-03T22:48:33.268Z,775.6
2023-12-03T22:50:16.591Z,775.3
2023-12-03T22:52:00.000Z,776.8
2023-12-03T22:53:43.791Z,776.9
2023-12-03T22:55:27.200Z,781.2
2023-12-03T22:57:10.507Z,783.1
2023-12-03T22:58:53.892Z,782.1
2023-12-03T23:00:37.298Z,782.3
2023-12-03T23:02:20.669Z,781.5
2023-12-03T23:04:04.154Z,782
2023-12-03T23:05:47.194Z,778
2023-12-03T23:09:14.011Z,782
2023-12-03T23:10:57.410Z,787.1
2023-12-03T23:12:40.828Z,791
2023-12-03T23:14:24.166Z,795.2
2023-12-03T23:16:07.240Z,800.3
2023-12-03T23:17:50.958Z,804.3
2023-12-03T23:19:34.057Z,807.2
2023-12-03T23:24:43.571Z,819.4
2023-12-03T23:26:27.006Z,822.7
2023-12-03T23:28:10.420Z,825.2
2023-12-03T23:29:53.721Z,828
2023-12-03T23:31:37.016Z,831.3
2023-12-03T23:33:20.570Z,834.5
2023-12-03T23:35:03.928Z,832.7
2023-12-03T23:38:30.548Z,832.4
2023-12-03T23:40:13.836Z,830.2
2023-12-03T23:41:57.295Z,828.7
2023-12-03T23:43:40.608Z,829.6
2023-12-03T23:45:24.028Z,830.8
2023-12-03T23:47:07.516Z,826.8
2023-12-03T23:48:50.814Z,825.2
2023-12-03T23:50:34.277Z,825.7
2023-12-03T23:52:17.969Z,823.1
2023-12-03T23:54:01.330Z,822.3
2023-12-03T23:55:44.782Z,821.4
2023-12-03T23:57:27.813Z,823.1
2023-12-03T23:59:11.487Z,824.8
